Time;durP1;ratioP1;P1;durP2;ratioP2;P2;SDS_P1;SDS_P2;PMS_P1;PMS_P2;Temp;Humidity;BMP_temperature;BMP_pressure;BME280_temperature;BME280_humidity;BME280_pressure;Samples;Min_cycle;Max_cycle;Signal;HPM_P1;HPM_P2
2021/06/27 00:02:08;;;;;;;;;;;;;;;;;;5054566;28;19932;-82
2021/06/27 00:04:36;;;;;;;;;;;;;;;;;;5074334;28;19947;-83
2021/06/27 00:07:05;;;;;;;;;;;;;;;;;;5089404;28;19925;-80
2021/06/27 00:09:34;;;;;;;;;;;;;;;;;;5057922;28;20299;-80
2021/06/27 00:12:03;;;;;;;;;;;;;;;;;;5057196;28;19935;-80
2021/06/27 00:14:31;;;;;;;;;;;;;;;;;;5061144;28;19928;-81
2021/06/27 00:17:00;;;;;;;;;;;;;;;;;;5042482;28;19936;-82
2021/06/27 00:19:28;;;;;;;;;;;;;;;;;;5049995;28;19928;-85
2021/06/27 00:21:57;;;;;;;;;;;;;;;;;;5109570;28;19913;-85
2021/06/27 00:24:25;;;;;;;;;;;;;;;;;;5070468;28;19924;-82
2021/06/27 00:26:59;;;;;;;;;;;;;;;;;;5066422;28;19928;-82
2021/06/27 00:29:27;;;;;;;;;;;;;;;;;;5071213;28;19925;-80
2021/06/27 00:31:56;;;;;;;;;;;;;;;;;;5072016;28;19924;-80
2021/06/27 00:34:24;;;;;;;;;;;;;;;;;;5040547;28;19924;-85
2021/06/27 00:36:53;;;;;;;;;;;;;;;;;;5057346;28;20382;-83
2021/06/27 00:39:21;;;;;;;;;;;;;;;;;;5074279;28;19928;-83
2021/06/27 00:41:50;;;;;;;;;;;;;;;;;;5054007;28;20336;-80
2021/06/27 00:44:21;;;;;;;;;;;;;;;;;;5056263;28;19932;-82
2021/06/27 00:46:51;;;;;;;;;;;;;;;;;;5059751;28;19925;-81
2021/06/27 00:49:20;;;;;;;;;;;;;;;;;;5057871;28;19932;-82
2021/06/27 00:51:48;;;;;;;;;;;;;;;;;;5058277;28;19925;-80
2021/06/27 00:54:16;;;;;;;;;;;;;;;;;;5044163;28;19928;-81
2021/06/27 00:56:46;;;;;;;;;;;;;;;;;;5036920;28;19924;-81
2021/06/27 00:59:14;;;;;;;;;;;;;;;;;;5057738;28;19936;-82
2021/06/27 01:01:44;;;;;;;;;;;;;;;;;;5054645;28;19929;-81
2021/06/27 01:04:12;;;;;;;;;;;;;;;;;;5056711;28;20337;-81
2021/06/27 01:06:40;;;;;;;;;;;;;;;;;;5037638;28;20298;-81
2021/06/27 01:09:09;;;;;;;;;;;;;;;;;;5039815;28;19932;-84
2021/06/27 01:11:37;;;;;;;;;;;;;;;;;;5071488;28;19931;-85
2021/06/27 01:14:06;;;;;;;;;;;;;;;;;;5082996;28;19924;-84
2021/06/27 01:16:40;;;;;;;;;;;;;;;;;;5057053;28;19925;-83
2021/06/27 01:19:10;;;;;;;;;;;;;;;;;;5061263;28;19935;-84
2021/06/27 01:21:39;;;;;;;;;;;;;;;;;;5092882;28;19924;-80
2021/06/27 01:24:08;;;;;;;;;;;;;;;;;;5072292;28;19924;-81
2021/06/27 01:26:36;;;;;;;;;;;;;;;;;;5085840;28;19925;-80
2021/06/27 01:29:05;;;;;;;;;;;;;;;;;;5072786;28;19919;-85
2021/06/27 01:31:33;;;;;;;;;;;;;;;;;;5094187;27;19924;-82
2021/06/27 01:34:02;;;;;;;;;;;;;;;;;;5050951;28;19932;-83
2021/06/27 01:36:30;;;;;;;;;;;;;;;;;;5063383;28;19936;-84
2021/06/27 01:39:00;;;;;;;;;;;;;;;;;;5039190;28;20322;-84
2021/06/27 01:41:28;;;;;;;;;;;;;;;;;;5063204;28;20036;-83
2021/06/27 01:43:57;;;;;;;;;;;;;;;;;;5043359;28;19932;-85
2021/06/27 01:46:25;;;;;;;;;;;;;;;;;;5062993;28;19932;-82
2021/06/27 01:48:54;;;;;;;;;;;;;;;;;;5086311;28;19928;-83
2021/06/27 01:51:22;;;;;;;;;;;;;;;;;;5053934;28;19929;-84
2021/06/27 01:53:50;;;;;;;;;;;;;;;;;;5052599;28;19925;-79
2021/06/27 01:56:20;;;;;;;;;;;;;;;;;;5042515;28;19924;-84
2021/06/27 01:58:50;;;;;;;;;;;;;;;;;;5035501;28;19929;-81
2021/06/27 02:01:19;;;;;;;;;;;;;;;;;;5038858;28;19925;-80
2021/06/27 02:03:49;;;;;;;;;;;;;;;;;;5041787;28;19932;-81
2021/06/27 02:06:18;;;;;;;;;;;;;;;;;;5041887;28;19925;-84
2021/06/27 02:08:46;;;;;;;;;;;;;;;;;;5037546;28;20608;-83
2021/06/27 02:11:16;;;;;;;;;;;;;;;;;;5039000;28;19935;-82
2021/06/27 02:13:45;;;;;;;;;;;;;;;;;;5067467;28;19929;-81
2021/06/27 02:16:14;;;;;;;;;;;;;;;;;;5037073;28;19931;-83
2021/06/27 02:18:43;;;;;;;;;;;;;;;;;;5062963;28;19924;-82
2021/06/27 02:21:15;;;;;;;;;;;;;;;;;;5058842;28;19924;-83
2021/06/27 02:23:43;;;;;;;;;;;;;;;;;;5038614;28;20473;-80
2021/06/27 02:26:12;;;;;;;;;;;;;;;;;;5085496;28;20200;-82
2021/06/27 02:28:40;;;;;;;;;;;;;;;;;;5082796;28;19925;-84
2021/06/27 02:31:10;;;;;;;;;;;;;;;;;;5057580;28;19925;-82
2021/06/27 02:33:39;;;;;;;;;;;;;;;;;;5041149;28;19940;-82
2021/06/27 02:36:07;;;;;;;;;;;;;;;;;;5035902;28;19936;-82
2021/06/27 02:38:36;;;;;;;;;;;;;;;;;;5050252;28;19925;-81
2021/06/27 02:41:04;;;;;;;;;;;;;;;;;;5048434;28;19931;-83
2021/06/27 02:43:33;;;;;;;;;;;;;;;;;;5062566;28;20119;-83
2021/06/27 02:46:01;;;;;;;;;;;;;;;;;;5031750;28;19955;-81
2021/06/27 02:48:31;;;;;;;;;;;;;;;;;;5053241;28;19925;-81
2021/06/27 02:50:59;;;;;;;;;;;;;;;;;;5038455;28;19925;-80
2021/06/27 02:53:27;;;;;;;;;;;;;;;;;;5052580;28;20379;-81
2021/06/27 02:56:08;;;;;;;;;;;;;;;;;;5037266;28;19932;-79
2021/06/27 02:58:37;;;;;;;;;;;;;;;;;;5044239;28;19929;-82
2021/06/27 03:01:05;;;;;;;;;;;;;;;;;;5066881;28;19928;-79
2021/06/27 03:03:35;;;;;;;;;;;;;;;;;;5030777;28;19928;-78
2021/06/27 03:06:04;;;;;;;;;;;;;;;;;;5056683;28;20382;-80
2021/06/27 03:08:32;;;;;;;;;;;;;;;;;;5056956;28;19932;-80
2021/06/27 03:11:01;;;;;;;;;;;;;;;;;;5074352;28;19931;-80
2021/06/27 03:13:29;;;;;;;;;;;;;;;;;;5072825;28;20134;-81
2021/06/27 03:15:57;;;;;;;;;;;;;;;;;;5056275;28;19928;-83
2021/06/27 03:18:26;;;;;;;;;;;;;;;;;;5073285;28;19939;-82
2021/06/27 03:20:56;;;;;;;;;;;;;;;;;;5036467;28;19925;-83
2021/06/27 03:23:25;;;;;;;;;;;;;;;;;;5054045;28;19936;-83
2021/06/27 03:25:54;;;;;;;;;;;;;;;;;;5023661;28;19936;-79
2021/06/27 03:28:22;;;;;;;;;;;;;;;;;;5036380;28;19924;-82
2021/06/27 03:30:50;;;;;;;;;;;;;;;;;;5049836;28;19932;-83
2021/06/27 03:33:19;;;;;;;;;;;;;;;;;;5082758;28;20281;-83
2021/06/27 03:35:47;;;;;;;;;;;;;;;;;;5064610;28;19924;-84
2021/06/27 03:38:21;;;;;;;;;;;;;;;;;;5052993;28;20015;-83
2021/06/27 03:40:49;;;;;;;;;;;;;;;;;;5073134;28;20264;-83
2021/06/27 03:43:18;;;;;;;;;;;;;;;;;;5055305;28;19932;-81
2021/06/27 03:45:46;;;;;;;;;;;;;;;;;;5058534;28;21170;-83
2021/06/27 03:48:15;;;;;;;;;;;;;;;;;;5047926;28;19925;-87
2021/06/27 03:50:43;;;;;;;;;;;;;;;;;;5034143;28;19924;-83
2021/06/27 03:53:11;;;;;;;;;;;;;;;;;;5039299;28;20015;-83
2021/06/27 03:55:41;;;;;;;;;;;;;;;;;;5066665;28;19924;-83
2021/06/27 03:58:10;;;;;;;;;;;;;;;;;;5053648;28;19924;-84
2021/06/27 04:00:38;;;;;;;;;;;;;;;;;;5078184;28;19925;-82
2021/06/27 04:03:06;;;;;;;;;;;;;;;;;;5069997;28;19924;-82
2021/06/27 04:05:35;;;;;;;;;;;;;;;;;;5030709;28;19932;-83
2021/06/27 04:08:03;;;;;;;;;;;;;;;;;;5053532;28;19928;-82
2021/06/27 04:10:32;;;;;;;;;;;;;;;;;;5063155;28;20321;-84
2021/06/27 04:13:02;;;;;;;;;;;;;;;;;;5076330;28;19909;-86
2021/06/27 04:15:32;;;;;;;;;;;;;;;;;;5058017;28;19928;-87
2021/06/27 04:18:01;;;;;;;;;;;;;;;;;;5108918;27;19908;-84
2021/06/27 04:20:30;;;;;;;;;;;;;;;;;;5092456;28;19908;-85
2021/06/27 04:22:59;;;;;;;;;;;;;;;;;;5095740;28;19915;-83
2021/06/27 04:25:27;;;;;;;;;;;;;;;;;;5078437;28;20386;-84
2021/06/27 04:27:56;;;;;;;;;;;;;;;;;;5076620;28;19924;-84
2021/06/27 04:30:25;;;;;;;;;;;;;;;;;;5078645;28;19928;-86
2021/06/27 04:32:54;;;;;;;;;;;;;;;;;;5109554;27;19926;-86
2021/06/27 04:35:22;;;;;;;;;;;;;;;;;;5075680;28;19924;-81
2021/06/27 04:37:50;;;;;;;;;;;;;;;;;;5033205;28;19932;-80
2021/06/27 04:40:19;;;;;;;;;;;;;;;;;;5065344;28;19924;-80
2021/06/27 04:42:47;;;;;;;;;;;;;;;;;;5048993;28;20307;-80
2021/06/27 04:45:16;;;;;;;;;;;;;;;;;;5066438;28;19932;-79
2021/06/27 04:47:45;;;;;;;;;;;;;;;;;;5052425;28;19928;-79
2021/06/27 04:50:14;;;;;;;;;;;;;;;;;;5024718;28;19925;-79
2021/06/27 04:52:42;;;;;;;;;;;;;;;;;;5071307;28;19924;-81
2021/06/27 04:55:11;;;;;;;;;;;;;;;;;;5062887;28;19931;-80
2021/06/27 04:57:39;;;;;;;;;;;;;;;;;;5064659;28;20394;-82
2021/06/27 05:00:08;;;;;;;;;;;;;;;;;;5085104;28;19924;-79
2021/06/27 05:02:36;;;;;;;;;;;;;;;;;;5073137;28;19932;-80
2021/06/27 05:05:07;;;;;;;;;;;;;;;;;;5040296;28;19924;-79
2021/06/27 05:07:35;;;;;;;;;;;;;;;;;;5062364;28;19928;-82
2021/06/27 05:10:03;;;;;;;;;;;;;;;;;;5052477;28;19931;-82
2021/06/27 05:12:32;;;;;;;;;;;;;;;;;;5053561;28;19925;-80
2021/06/27 05:15:00;;;;;;;;;;;;;;;;;;5036030;28;19932;-78
2021/06/27 05:17:29;;;;;;;;;;;;;;;;;;5052215;28;19925;-79
2021/06/27 05:19:57;;;;;;;;;;;;;;;;;;5052575;28;19925;-80
2021/06/27 05:22:27;;;;;;;;;;;;;;;;;;5053794;28;19929;-80
2021/06/27 05:24:56;;;;;;;;;;;;;;;;;;5065778;28;19926;-79
2021/06/27 05:27:24;;;;;;;;;;;;;;;;;;5030671;28;20685;-81
2021/06/27 05:29:52;;;;;;;;;;;;;;;;;;5080919;28;19924;-79
2021/06/27 05:32:21;;;;;;;;;;;;;;;;;;5053712;28;20302;-79
2021/06/27 05:34:49;;;;;;;;;;;;;;;;;;5037296;28;19932;-79
2021/06/27 05:37:17;;;;;;;;;;;;;;;;;;5046772;28;19935;-80
2021/06/27 05:39:47;;;;;;;;;;;;;;;;;;5051622;28;19925;-80
2021/06/27 05:42:18;;;;;;;;;;;;;;;;;;5037187;28;20398;-79
2021/06/27 05:44:46;;;;;;;;;;;;;;;;;;5052215;28;20267;-82
2021/06/27 05:47:14;;;;;;;;;;;;;;;;;;5024906;28;20301;-81
2021/06/27 05:49:43;;;;;;;;;;;;;;;;;;5046143;28;19925;-80
2021/06/27 05:52:11;;;;;;;;;;;;;;;;;;5061933;28;19928;-80
2021/06/27 05:54:39;;;;;;;;;;;;;;;;;;5046280;28;20267;-79
2021/06/27 05:57:12;;;;;;;;;;;;;;;;;;5076065;28;19925;-79
2021/06/27 05:59:41;;;;;;;;;;;;;;;;;;5035029;28;19925;-80
2021/06/27 06:02:09;;;;;;;;;;;;;;;;;;5045950;28;19929;-79
2021/06/27 06:04:37;;;;;;;;;;;;;;;;;;5064258;28;20275;-80
2021/06/27 06:07:06;;;;;;;;;;;;;;;;;;5052888;28;19924;-80
2021/06/27 06:09:34;;;;;;;;;;;;;;;;;;5045317;28;19944;-79
2021/06/27 06:12:02;;;;;;;;;;;;;;;;;;5041245;28;20405;-79
2021/06/27 06:14:32;;;;;;;;;;;;;;;;;;5066794;28;19932;-80
2021/06/27 06:17:01;;;;;;;;;;;;;;;;;;5068736;28;19925;-79
2021/06/27 06:19:29;;;;;;;;;;;;;;;;;;5076193;28;19925;-79
2021/06/27 06:21:57;;;;;;;;;;;;;;;;;;5061306;28;19952;-80
2021/06/27 06:24:26;;;;;;;;;;;;;;;;;;5067955;28;19932;-79
2021/06/27 06:26:54;;;;;;;;;;;;;;;;;;5026320;28;20457;-79
2021/06/27 06:29:22;;;;;;;;;;;;;;;;;;5058764;28;19924;-80
2021/06/27 06:31:52;;;;;;;;;;;;;;;;;;5042048;28;20290;-80
2021/06/27 06:34:21;;;;;;;;;;;;;;;;;;5064387;28;19931;-79
2021/06/27 06:36:49;;;;;;;;;;;;;;;;;;5054141;28;19924;-79
2021/06/27 06:39:17;;;;;;;;;;;;;;;;;;5063872;28;19932;-79
2021/06/27 06:41:46;;;;;;;;;;;;;;;;;;5072514;28;19936;-83
2021/06/27 06:44:14;;;;;;;;;;;;;;;;;;5071499;28;20256;-83
2021/06/27 06:46:42;;;;;;;;;;;;;;;;;;5043642;28;20313;-83
2021/06/27 06:49:12;;;;;;;;;;;;;;;;;;5065202;28;20268;-82
2021/06/27 06:51:40;;;;;;;;;;;;;;;;;;5054098;28;19928;-80
2021/06/27 06:54:08;;;;;;;;;;;;;;;;;;5053777;28;20378;-79
2021/06/27 06:56:37;;;;;;;;;;;;;;;;;;5050868;28;19924;-79
2021/06/27 06:59:05;;;;;;;;;;;;;;;;;;5055325;28;20405;-79
2021/06/27 07:01:34;;;;;;;;;;;;;;;;;;5060207;28;19932;-80
2021/06/27 07:04:02;;;;;;;;;;;;;;;;;;5041164;28;19924;-80
2021/06/27 07:06:32;;;;;;;;;;;;;;;;;;5056897;28;19936;-83
2021/06/27 07:09:01;;;;;;;;;;;;;;;;;;5063437;28;19931;-80
2021/06/27 07:11:29;;;;;;;;;;;;;;;;;;5042089;28;20534;-81
2021/06/27 07:13:58;;;;;;;;;;;;;;;;;;5036350;28;19932;-80
2021/06/27 07:16:26;;;;;;;;;;;;;;;;;;5070630;28;19932;-79
2021/06/27 07:19:00;;;;;;;;;;;;;;;;;;5035332;28;19925;-80
2021/06/27 07:21:29;;;;;;;;;;;;;;;;;;5054784;28;19928;-80
2021/06/27 07:23:59;;;;;;;;;;;;;;;;;;5067637;28;19925;-83
2021/06/27 07:26:27;;;;;;;;;;;;;;;;;;5037534;28;20433;-79
2021/06/27 07:28:55;;;;;;;;;;;;;;;;;;5055442;28;20426;-81
2021/06/27 07:31:24;;;;;;;;;;;;;;;;;;5100225;28;19926;-83
2021/06/27 07:33:53;;;;;;;;;;;;;;;;;;5061254;28;19932;-82
2021/06/27 07:36:21;;;;;;;;;;;;;;;;;;5077669;28;19936;-80
2021/06/27 07:38:49;;;;;;;;;;;;;;;;;;5070693;28;20353;-79
2021/06/27 07:41:19;;;;;;;;;;;;;;;;;;5046624;28;19932;-81
2021/06/27 07:43:48;;;;;;;;;;;;;;;;;;5067148;28;19931;-79
2021/06/27 07:46:17;;;;;;;;;;;;;;;;;;5029203;28;19947;-79
2021/06/27 07:48:45;;;;;;;;;;;;;;;;;;5036074;28;19924;-78
2021/06/27 07:51:13;;;;;;;;;;;;;;;;;;5049991;28;20294;-80
2021/06/27 07:53:42;;;;;;;;;;;;;;;;;;5049113;28;19924;-79
2021/06/27 07:56:10;;;;;;;;;;;;;;;;;;5049041;28;19932;-78
2021/06/27 07:58:55;;;;;;;;;;;;;;;;;;5053026;28;20346;-79
2021/06/27 08:01:24;;;;;;;;;;;;;;;;;;5058826;28;20390;-78
2021/06/27 08:03:53;;;;;;;;;;;;;;;;;;5061654;28;19930;-81
2021/06/27 08:06:22;;;;;;;;;;;;;;;;;;5053407;28;19924;-81
2021/06/27 08:08:50;;;;;;;;;;;;;;;;;;5035488;28;19939;-78
2021/06/27 08:11:18;;;;;;;;;;;;;;;;;;5075091;28;19925;-78
2021/06/27 08:13:47;;;;;;;;;;;;;;;;;;5056787;28;20334;-82
2021/06/27 08:16:16;;;;;;;;;;;;;;;;;;5055879;28;19924;-83
2021/06/27 08:18:45;;;;;;;;;;;;;;;;;;5053684;28;19925;-82
2021/06/27 08:21:13;;;;;;;;;;;;;;;;;;5071564;28;19924;-82
2021/06/27 08:23:41;;;;;;;;;;;;;;;;;;5045702;28;19932;-79
2021/06/27 08:26:10;;;;;;;;;;;;;;;;;;5039591;28;19975;-82
2021/06/27 08:28:39;;;;;;;;;;;;;;;;;;5042244;28;19935;-80
2021/06/27 08:31:07;;;;;;;;;;;;;;;;;;5055590;28;20305;-81
2021/06/27 08:33:37;;;;;;;;;;;;;;;;;;5060213;28;19924;-83
2021/06/27 08:36:06;;;;;;;;;;;;;;;;;;5062580;28;19939;-81
2021/06/27 08:38:34;;;;;;;;;;;;;;;;;;5054113;28;19939;-81
2021/06/27 08:41:03;;;;;;;;;;;;;;;;;;5056531;28;20306;-81
2021/06/27 08:43:32;;;;;;;;;;;;;;;;;;5078320;28;19996;-80
2021/06/27 08:46:05;;;;;;;;;;;;;;;;;;5042754;28;20147;-83
2021/06/27 08:48:35;;;;;;;;;;;;;;;;;;5071305;28;20827;-81
2021/06/27 08:51:05;;;;;;;;;;;;;;;;;;5042460;28;19935;-82
2021/06/27 08:53:34;;;;;;;;;;;;;;;;;;5063666;28;19939;-81
2021/06/27 08:56:06;;;;;;;;;;;;;;;;;;5079740;28;19925;-81
2021/06/27 08:58:35;;;;;;;;;;;;;;;;;;5074138;28;19933;-82
2021/06/27 09:01:03;;;;;;;;;;;;;;;;;;5059456;28;19924;-81
2021/06/27 09:03:32;;;;;;;;;;;;;;;;;;5089808;28;20290;-80
2021/06/27 09:06:00;;;;;;;;;;;;;;;;;;5077643;28;19935;-81
2021/06/27 09:08:30;;;;;;;;;;;;;;;;;;5078242;28;19948;-81
2021/06/27 09:11:12;;;;;;;;;;;;;;;;;;5064182;28;19935;-82
2021/06/27 09:13:41;;;;;;;;;;;;;;;;;;5063555;28;19928;-81
2021/06/27 09:16:20;;;;;;;;;;;;;;;;;;5080998;28;19929;-81
2021/06/27 09:18:49;;;;;;;;;;;;;;;;;;5060114;28;19931;-80
2021/06/27 09:21:17;;;;;;;;;;;;;;;;;;5055288;28;19936;-82
2021/06/27 09:23:48;;;;;;;;;;;;;;;;;;5084076;28;19937;-82
2021/06/27 09:26:34;;;;;;;;;;;;;;;;;;5072979;28;19915;-83
2021/06/27 09:29:03;;;;;;;;;;;;;;;;;;5072868;28;19909;-83
2021/06/27 09:31:35;;;;;;;;;;;;;;;;;;5072943;28;19925;-81
2021/06/27 09:34:04;;;;;;;;;;;;;;;;;;5063227;28;19925;-80
2021/06/27 09:36:32;;;;;;;;;;;;;;;;;;5069834;28;19936;-81
2021/06/27 09:39:08;;;;;;;;;;;;;;;;;;5059818;28;19924;-81
2021/06/27 09:41:37;;;;;;;;;;;;;;;;;;5074606;28;20314;-81
2021/06/27 09:44:07;;;;;;;;;;;;;;;;;;5060018;28;19925;-80
2021/06/27 09:46:36;;;;;;;;;;;;;;;;;;5039211;28;19932;-80
2021/06/27 09:49:06;;;;;;;;;;;;;;;;;;5051674;28;19924;-79
2021/06/27 09:51:38;;;;;;;;;;;;;;;;;;5041939;28;19940;-80
2021/06/27 09:54:13;;;;;;;;;;;;;;;;;;5075027;28;20404;-79
2021/06/27 09:56:42;;;;;;;;;;;;;;;;;;5057043;28;19925;-79
2021/06/27 09:59:11;;;;;;;;;;;;;;;;;;5056099;28;19943;-79
2021/06/27 10:01:39;;;;;;;;;;;;;;;;;;5062837;28;19932;-79
2021/06/27 10:04:08;;;;;;;;;;;;;;;;;;5055265;28;19936;-79
2021/06/27 10:06:48;;;;;;;;;;;;;;;;;;5075846;28;19925;-79
2021/06/27 10:09:20;;;;;;;;;;;;;;;;;;5069705;28;19924;-79
2021/06/27 10:11:59;;;;;;;;;;;;;;;;;;5048538;28;20437;-79
2021/06/27 10:14:28;;;;;;;;;;;;;;;;;;5039748;28;19924;-79
2021/06/27 10:16:57;;;;;;;;;;;;;;;;;;5073162;28;19924;-79
2021/06/27 10:19:26;;;;;;;;;;;;;;;;;;5047454;28;19924;-79
2021/06/27 10:21:54;;;;;;;;;;;;;;;;;;5071064;28;19928;-79
2021/06/27 10:24:24;;;;;;;;;;;;;;;;;;5063745;28;20190;-79
2021/06/27 10:26:53;;;;;;;;;;;;;;;;;;5061821;28;19945;-79
2021/06/27 10:29:22;;;;;;;;;;;;;;;;;;5091056;28;19912;-80
2021/06/27 10:31:52;;;;;;;;;;;;;;;;;;5048247;28;19924;-80
2021/06/27 10:34:20;;;;;;;;;;;;;;;;;;5073334;28;19947;-79
2021/06/27 10:36:50;;;;;;;;;;;;;;;;;;5054372;28;19931;-79
2021/06/27 10:39:18;;;;;;;;;;;;;;;;;;5056088;28;20306;-79
2021/06/27 10:41:59;;;;;;;;;;;;;;;;;;5068953;28;19940;-79
2021/06/27 10:44:28;;;;;;;;;;;;;;;;;;5082539;28;19956;-78
2021/06/27 10:46:58;;;;;;;;;;;;;;;;;;5052596;28;20401;-79
2021/06/27 10:50:09;;;;;;;;;;;;;;;;;;5055621;28;19924;-79
2021/06/27 10:53:04;;;;;;;;;;;;;;;;;;5071918;28;19924;-78
2021/06/27 10:55:40;;;;;;;;;;;;;;;;;;4987733;28;20405;-78
2021/06/27 10:58:11;;;;;;;;;;;;;;;;;;5063619;28;19925;-80
2021/06/27 11:00:59;;;;;;;;;;;;;;;;;;5072175;28;19925;-78
2021/06/27 11:03:32;;;;;;;;;;;;;;;;;;5075274;28;20164;-78
2021/06/27 11:06:02;;;;;;;;;;;;;;;;;;5080772;28;19935;-78
2021/06/27 11:08:31;;;;;;;;;;;;;;;;;;5075601;28;19914;-79
2021/06/27 11:11:01;;;;;;;;;;;;;;;;;;5078074;28;19920;-79
2021/06/27 11:13:31;;;;;;;;;;;;;;;;;;5079132;28;19939;-79
2021/06/27 11:16:01;;;;;;;;;;;;;;;;;;5074942;28;19931;-79
2021/06/27 11:18:31;;;;;;;;;;;;;;;;;;5055886;28;19948;-79
2021/06/27 11:21:05;;;;;;;;;;;;;;;;;;5051166;28;19931;-79
2021/06/27 11:23:51;;;;;;;;;;;;;;;;;;5059053;28;19932;-79
2021/06/27 11:26:38;;;;;;;;;;;;;;;;;;5059073;28;19932;-79
2021/06/27 11:29:21;;;;;;;;;;;;;;;;;;5068580;28;20298;-80
2021/06/27 11:31:51;;;;;;;;;;;;;;;;;;5062403;28;19932;-80
2021/06/27 11:34:23;;;;;;;;;;;;;;;;;;5043768;28;19925;-82
2021/06/27 11:36:52;;;;;;;;;;;;;;;;;;5065563;28;20386;-80
2021/06/27 11:39:42;;;;;;;;;;;;;;;;;;5059860;28;19941;-80
2021/06/27 11:42:26;;;;;;;;;;;;;;;;;;5060123;28;19929;-79
2021/06/27 11:45:09;;;;;;;;;;;;;;;;;;5064234;28;19929;-81
2021/06/27 11:47:39;;;;;;;;;;;;;;;;;;5079781;28;19932;-80
2021/06/27 11:50:17;;;;;;;;;;;;;;;;;;5076808;28;19924;-80
2021/06/27 11:52:49;;;;;;;;;;;;;;;;;;5064396;28;20306;-80
2021/06/27 11:55:18;;;;;;;;;;;;;;;;;;5060965;28;19940;-80
2021/06/27 11:57:47;;;;;;;;;;;;;;;;;;5044952;28;20413;-80
2021/06/27 12:00:16;;;;;;;;;;;;;;;;;;5043801;28;19935;-80
2021/06/27 12:02:46;;;;;;;;;;;;;;;;;;5065092;28;19925;-82
2021/06/27 12:05:15;;;;;;;;;;;;;;;;;;5042474;28;19932;-82
2021/06/27 12:07:43;;;;;;;;;;;;;;;;;;5062827;28;19924;-80
2021/06/27 12:10:20;;;;;;;;;;;;;;;;;;5055946;28;19924;-80
2021/06/27 12:12:50;;;;;;;;;;;;;;;;;;5066664;28;19936;-80
2021/06/27 12:15:32;;;;;;;;;;;;;;;;;;5051910;28;19925;-80
2021/06/27 12:18:03;;;;;;;;;;;;;;;;;;5091048;28;19924;-80
2021/06/27 12:20:33;;;;;;;;;;;;;;;;;;5085716;28;19925;-80
2021/06/27 12:23:03;;;;;;;;;;;;;;;;;;5042169;28;20283;-80
2021/06/27 12:25:32;;;;;;;;;;;;;;;;;;5043399;28;19924;-81
2021/06/27 12:28:02;;;;;;;;;;;;;;;;;;5057723;28;19924;-81
2021/06/27 12:30:41;;;;;;;;;;;;;;;;;;5046088;28;20275;-81
2021/06/27 12:33:12;;;;;;;;;;;;;;;;;;5080937;28;19958;-81
2021/06/27 12:35:43;;;;;;;;;;;;;;;;;;5083719;28;20414;-81
2021/06/27 12:38:13;;;;;;;;;;;;;;;;;;5081608;28;19925;-81
2021/06/27 12:40:43;;;;;;;;;;;;;;;;;;5061457;28;19933;-81
2021/06/27 12:43:21;;;;;;;;;;;;;;;;;;5040854;28;19928;-80
2021/06/27 12:46:04;;;;;;;;;;;;;;;;;;5061709;28;19924;-82
2021/06/27 12:48:34;;;;;;;;;;;;;;;;;;5049551;28;19925;-83
2021/06/27 12:51:03;;;;;;;;;;;;;;;;;;5063454;28;20002;-80
2021/06/27 12:53:32;;;;;;;;;;;;;;;;;;5064039;28;19939;-81
2021/06/27 12:56:08;;;;;;;;;;;;;;;;;;5048736;28;19925;-81
2021/06/27 12:58:51;;;;;;;;;;;;;;;;;;5064532;28;20287;-80
2021/06/27 13:01:19;;;;;;;;;;;;;;;;;;5045152;28;19924;-80
2021/06/27 13:03:57;;;;;;;;;;;;;;;;;;5048919;28;19924;-80
2021/06/27 13:06:26;;;;;;;;;;;;;;;;;;5048911;28;19951;-81
2021/06/27 13:09:09;;;;;;;;;;;;;;;;;;5081225;28;19932;-81
2021/06/27 13:11:53;;;;;;;;;;;;;;;;;;5045269;28;19932;-81
2021/06/27 13:14:24;;;;;;;;;;;;;;;;;;5077742;28;20022;-81
2021/06/27 13:17:01;;;;;;;;;;;;;;;;;;5080400;28;19925;-80
2021/06/27 13:19:31;;;;;;;;;;;;;;;;;;5068428;28;19924;-81
2021/06/27 13:22:09;;;;;;;;;;;;;;;;;;5094742;28;19942;-81
2021/06/27 13:24:56;;;;;;;;;;;;;;;;;;5047366;28;19923;-81
2021/06/27 13:27:25;;;;;;;;;;;;;;;;;;5072624;28;19930;-81
2021/06/27 13:30:03;;;;;;;;;;;;;;;;;;5079605;28;19924;-81
2021/06/27 13:32:32;;;;;;;;;;;;;;;;;;5066780;28;19924;-81
2021/06/27 13:35:02;;;;;;;;;;;;;;;;;;5064671;28;19930;-81
2021/06/27 13:37:45;;;;;;;;;;;;;;;;;;5046270;28;19924;-81
2021/06/27 13:40:14;;;;;;;;;;;;;;;;;;5079342;28;19925;-80
2021/06/27 13:42:42;;;;;;;;;;;;;;;;;;5086495;28;19925;-81
2021/06/27 13:45:11;;;;;;;;;;;;;;;;;;5049431;28;19925;-81
2021/06/27 13:47:40;;;;;;;;;;;;;;;;;;5078372;28;19925;-81
2021/06/27 13:50:10;;;;;;;;;;;;;;;;;;5075230;28;19928;-81
2021/06/27 13:52:39;;;;;;;;;;;;;;;;;;5085222;28;19924;-80
2021/06/27 13:55:08;;;;;;;;;;;;;;;;;;5069130;28;19927;-81
2021/06/27 13:57:37;;;;;;;;;;;;;;;;;;5080012;28;19912;-81
2021/06/27 14:00:06;;;;;;;;;;;;;;;;;;5080826;28;19915;-81
2021/06/27 14:02:41;;;;;;;;;;;;;;;;;;5084960;28;19925;-80
2021/06/27 14:05:11;;;;;;;;;;;;;;;;;;5085813;28;19930;-81
2021/06/27 14:07:40;;;;;;;;;;;;;;;;;;5087616;28;20327;-80
2021/06/27 14:10:09;;;;;;;;;;;;;;;;;;5052876;28;19935;-81
2021/06/27 14:12:38;;;;;;;;;;;;;;;;;;5071662;28;19930;-81
2021/06/27 14:15:07;;;;;;;;;;;;;;;;;;5064910;28;20306;-81
2021/06/27 14:17:35;;;;;;;;;;;;;;;;;;5044930;28;19925;-80
2021/06/27 14:20:04;;;;;;;;;;;;;;;;;;5081365;28;19932;-80
2021/06/27 14:22:34;;;;;;;;;;;;;;;;;;5065378;28;19932;-80
2021/06/27 14:25:03;;;;;;;;;;;;;;;;;;5093991;28;19936;-81
2021/06/27 14:27:32;;;;;;;;;;;;;;;;;;5085270;28;19928;-81
2021/06/27 14:30:00;;;;;;;;;;;;;;;;;;5050496;28;19924;-81
2021/06/27 14:32:29;;;;;;;;;;;;;;;;;;5070651;28;19939;-81
2021/06/27 14:34:57;;;;;;;;;;;;;;;;;;5071391;28;19931;-81
2021/06/27 14:37:26;;;;;;;;;;;;;;;;;;5064922;28;19925;-81
2021/06/27 14:39:55;;;;;;;;;;;;;;;;;;5063296;28;19929;-80
2021/06/27 14:42:24;;;;;;;;;;;;;;;;;;5090541;28;19925;-81
2021/06/27 14:44:52;;;;;;;;;;;;;;;;;;5048319;28;19929;-81
2021/06/27 14:47:21;;;;;;;;;;;;;;;;;;5061664;28;19925;-82
2021/06/27 14:49:49;;;;;;;;;;;;;;;;;;5063211;28;19928;-81
2021/06/27 14:52:18;;;;;;;;;;;;;;;;;;5076433;28;20379;-81
2021/06/27 14:54:46;;;;;;;;;;;;;;;;;;5047852;28;19948;-82
2021/06/27 14:57:16;;;;;;;;;;;;;;;;;;5061261;28;19924;-82
2021/06/27 14:59:44;;;;;;;;;;;;;;;;;;5047024;28;19925;-81
2021/06/27 15:02:12;;;;;;;;;;;;;;;;;;5063558;28;19925;-81
2021/06/27 15:04:41;;;;;;;;;;;;;;;;;;5053508;28;19925;-82
2021/06/27 15:07:09;;;;;;;;;;;;;;;;;;5080075;28;19931;-82
2021/06/27 15:09:38;;;;;;;;;;;;;;;;;;5057289;28;19958;-82
2021/06/27 15:12:06;;;;;;;;;;;;;;;;;;5045743;28;19925;-81
2021/06/27 15:14:36;;;;;;;;;;;;;;;;;;5062960;28;19939;-82
2021/06/27 15:17:05;;;;;;;;;;;;;;;;;;5045290;28;20444;-81
2021/06/27 15:19:34;;;;;;;;;;;;;;;;;;5048227;28;20312;-81
2021/06/27 15:22:03;;;;;;;;;;;;;;;;;;5065208;28;19932;-82
2021/06/27 15:24:32;;;;;;;;;;;;;;;;;;5080708;28;19925;-82
2021/06/27 15:27:00;;;;;;;;;;;;;;;;;;5082233;28;19932;-82
2021/06/27 15:29:28;;;;;;;;;;;;;;;;;;5045549;28;19924;-82
2021/06/27 15:31:59;;;;;;;;;;;;;;;;;;5081557;28;19924;-82
2021/06/27 15:34:29;;;;;;;;;;;;;;;;;;5058924;28;19929;-81
2021/06/27 15:36:57;;;;;;;;;;;;;;;;;;5060198;28;19932;-82
2021/06/27 15:39:26;;;;;;;;;;;;;;;;;;5059036;28;19924;-81
2021/06/27 15:41:55;;;;;;;;;;;;;;;;;;5077606;28;19928;-82
2021/06/27 15:44:23;;;;;;;;;;;;;;;;;;5043015;28;19924;-81
2021/06/27 15:46:51;;;;;;;;;;;;;;;;;;5053260;28;19931;-81
2021/06/27 15:49:23;;;;;;;;;;;;;;;;;;5060162;28;19925;-82
2021/06/27 15:51:51;;;;;;;;;;;;;;;;;;5056925;28;19945;-81
2021/06/27 15:54:19;;;;;;;;;;;;;;;;;;5074445;28;19948;-82
2021/06/27 15:56:50;;;;;;;;;;;;;;;;;;5074909;28;20003;-81
2021/06/27 15:59:21;;;;;;;;;;;;;;;;;;5037701;28;19925;-81
2021/06/27 16:01:50;;;;;;;;;;;;;;;;;;5084562;28;19924;-81
2021/06/27 16:04:18;;;;;;;;;;;;;;;;;;5087114;28;20386;-81
2021/06/27 16:06:48;;;;;;;;;;;;;;;;;;5036327;28;19924;-80
2021/06/27 16:09:17;;;;;;;;;;;;;;;;;;5036582;28;19924;-81
2021/06/27 16:11:45;;;;;;;;;;;;;;;;;;5038902;28;19932;-80
2021/06/27 16:14:14;;;;;;;;;;;;;;;;;;5087250;28;19925;-82
2021/06/27 16:16:42;;;;;;;;;;;;;;;;;;5053184;28;19931;-83
2021/06/27 16:19:11;;;;;;;;;;;;;;;;;;5049784;28;19932;-80
2021/06/27 16:21:40;;;;;;;;;;;;;;;;;;5051479;28;20378;-81
2021/06/27 16:24:14;;;;;;;;;;;;;;;;;;5026997;28;19925;-80
2021/06/27 16:26:43;;;;;;;;;;;;;;;;;;5062076;28;19971;-82
2021/06/27 16:29:12;;;;;;;;;;;;;;;;;;5033307;28;20302;-80
2021/06/27 16:31:40;;;;;;;;;;;;;;;;;;5060315;28;19932;-80
2021/06/27 16:34:09;;;;;;;;;;;;;;;;;;5047522;28;19924;-82
2021/06/27 16:36:37;;;;;;;;;;;;;;;;;;5053006;28;19924;-82
2021/06/27 16:39:06;;;;;;;;;;;;;;;;;;5071506;28;19939;-80
2021/06/27 16:41:36;;;;;;;;;;;;;;;;;;5044824;28;19929;-80
2021/06/27 16:44:06;;;;;;;;;;;;;;;;;;5086472;28;19936;-82
2021/06/27 16:46:34;;;;;;;;;;;;;;;;;;5040136;28;19925;-80
2021/06/27 16:49:03;;;;;;;;;;;;;;;;;;5045231;28;20412;-83
2021/06/27 16:51:31;;;;;;;;;;;;;;;;;;5052143;28;20458;-80
2021/06/27 16:53:59;;;;;;;;;;;;;;;;;;5051667;28;19925;-81
2021/06/27 16:56:27;;;;;;;;;;;;;;;;;;5048556;28;19931;-82
2021/06/27 16:58:58;;;;;;;;;;;;;;;;;;5066822;28;19931;-81
2021/06/27 17:01:26;;;;;;;;;;;;;;;;;;5052989;28;19931;-80
2021/06/27 17:03:55;;;;;;;;;;;;;;;;;;5053112;28;19928;-80
2021/06/27 17:06:24;;;;;;;;;;;;;;;;;;5047025;28;19932;-81